Time;durP1;ratioP1;P1;durP2;ratioP2;P2;SDS_P1;SDS_P2;PMS_P1;PMS_P2;Temp;Humidity;BMP_temperature;BMP_pressure;BME280_temperature;BME280_humidity;BME280_pressure;Samples;Min_cycle;Max_cycle;Signal;HPM_P1;HPM_P2
2022/03/01 00:02:14;;;;;;;12.90;8.30;;;-1.10;94.40;;;;;;4969397;28;20227;-74
2022/03/01 00:04:41;;;;;;;12.10;8.07;;;-1.10;94.50;;;;;;4968520;28;20728;-77
2022/03/01 00:07:08;;;;;;;15.38;8.55;;;-1.10;94.50;;;;;;4967869;28;20434;-77
2022/03/01 00:09:35;;;;;;;15.30;7.93;;;-1.10;94.50;;;;;;4968054;28;20208;-76
2022/03/01 00:12:02;;;;;;;14.52;9.50;;;-1.20;94.30;;;;;;4968072;28;20214;-77
2022/03/01 00:14:30;;;;;;;9.07;7.20;;;-1.20;94.20;;;;;;4967897;28;20259;-74
2022/03/01 00:16:59;;;;;;;12.50;8.30;;;-1.20;94.30;;;;;;4968053;28;20524;-74
2022/03/01 00:19:29;;;;;;;12.43;8.18;;;-1.20;94.40;;;;;;4968770;28;20592;-73
2022/03/01 00:21:56;;;;;;;11.18;8.35;;;-1.30;94.30;;;;;;4967756;28;20265;-74
2022/03/01 00:24:23;;;;;;;10.85;6.95;;;-1.30;94.30;;;;;;4967414;28;20228;-74
2022/03/01 00:26:50;;;;;;;9.77;8.13;;;-1.30;94.20;;;;;;4967673;28;20294;-74
2022/03/01 00:29:17;;;;;;;10.18;6.80;;;-1.40;94.30;;;;;;4967866;28;20234;-75
2022/03/01 00:31:46;;;;;;;12.07;8.18;;;-1.40;94.30;;;;;;4968907;28;20238;-74
2022/03/01 00:34:13;;;;;;;14.93;7.28;;;-1.40;94.30;;;;;;4968166;28;20227;-74
2022/03/01 00:36:40;;;;;;;9.55;6.95;;;-1.40;94.30;;;;;;4967507;28;20576;-75
2022/03/01 00:39:08;;;;;;;13.73;7.50;;;-1.50;94.40;;;;;;4968309;28;20291;-74
2022/03/01 00:41:36;;;;;;;10.77;7.28;;;-1.50;94.40;;;;;;4969044;28;20613;-76
2022/03/01 00:44:03;;;;;;;12.35;7.13;;;-1.50;94.30;;;;;;4967670;28;20228;-74
2022/03/01 00:46:30;;;;;;;12.52;7.53;;;-1.60;94.40;;;;;;5055402;22;20579;-91
2022/03/01 00:48:59;;;;;;;13.75;7.30;;;-1.60;94.10;;;;;;5043676;28;20200;-91
2022/03/01 00:51:27;;;;;;;10.50;6.95;;;-1.60;94.10;;;;;;5050174;28;20658;-91
2022/03/01 00:53:54;;;;;;;10.15;7.50;;;-1.60;94.30;;;;;;5050007;28;20205;-92
2022/03/01 00:56:21;;;;;;;9.90;6.97;;;-1.60;94.30;;;;;;5049857;28;20221;-90
2022/03/01 00:58:48;;;;;;;11.65;8.52;;;-1.60;94.20;;;;;;5049880;28;20205;-92
2022/03/01 01:01:14;;;;;;;10.90;7.43;;;-1.60;94.30;;;;;;5050491;28;20197;-91
2022/03/01 01:03:41;;;;;;;11.40;7.45;;;-1.60;94.10;;;;;;5049894;28;20643;-91
2022/03/01 01:06:10;;;;;;;14.27;8.10;;;-1.60;94.10;;;;;;5049959;28;20217;-92
2022/03/01 01:08:37;;;;;;;11.10;7.78;;;-1.60;94.20;;;;;;5049684;28;20677;-92
2022/03/01 01:11:04;;;;;;;12.52;8.02;;;-1.60;94.10;;;;;;5049420;28;20209;-92
2022/03/01 01:13:31;;;;;;;12.05;8.13;;;-1.70;94.00;;;;;;5049442;28;20286;-91
2022/03/01 01:15:58;;;;;;;11.90;7.45;;;-1.70;94.10;;;;;;5048581;28;20697;-92
2022/03/01 01:18:25;;;;;;;11.98;8.32;;;-1.80;94.20;;;;;;5048659;28;20198;-92
2022/03/01 01:20:52;;;;;;;13.40;7.15;;;-1.90;94.30;;;;;;5048614;28;20216;-90
2022/03/01 01:23:20;;;;;;;11.15;6.68;;;-1.90;94.30;;;;;;5049530;28;20213;-93
2022/03/01 01:25:54;;;;;;;10.70;7.15;;;-1.90;94.40;;;;;;5049162;28;20217;-91
2022/03/01 01:28:21;;;;;;;10.80;7.35;;;-2.00;94.60;;;;;;5050474;28;20239;-92
2022/03/01 01:30:48;;;;;;;12.20;6.95;;;-2.10;94.70;;;;;;5048783;28;20201;-92
2022/03/01 01:33:22;;;;;;;10.68;7.20;;;-2.10;94.60;;;;;;5048789;28;20205;-93
2022/03/01 01:35:51;;;;;;;9.20;6.25;;;-2.10;94.60;;;;;;5054218;28;20232;-92
2022/03/01 01:38:28;;;;;;;9.60;6.50;;;-2.10;94.70;;;;;;5051423;28;20209;-91
2022/03/01 01:40:57;;;;;;;8.57;6.38;;;-2.10;94.80;;;;;;5052119;28;20276;-91
2022/03/01 01:43:24;;;;;;;10.73;7.32;;;-2.10;94.80;;;;;;5052568;28;20201;-91
2022/03/01 01:45:51;;;;;;;10.65;6.75;;;-2.10;94.70;;;;;;5051992;28;20281;-92
2022/03/01 01:51:17;;;;;;;11.77;8.32;;;-2.10;94.70;;;;;;5051445;28;20276;-89
2022/03/01 01:53:56;;;;;;;15.20;8.25;;;-2.10;94.70;;;;;;5049390;28;20194;-89
2022/03/01 01:56:34;;;;;;;12.55;7.80;;;-2.20;94.70;;;;;;5051729;28;20229;-91
2022/03/01 01:59:21;;;;;;;10.73;7.13;;;-2.20;94.90;;;;;;5052340;28;20211;-90
2022/03/01 02:01:50;;;;;;;10.23;6.85;;;-2.20;94.90;;;;;;5051791;28;20332;-90
2022/03/01 02:04:28;;;;;;;10.40;7.22;;;-2.20;94.90;;;;;;5052274;28;20201;-90
2022/03/01 02:07:02;;;;;;;11.98;7.05;;;-2.30;95.00;;;;;;5051799;28;20204;-90
2022/03/01 02:09:49;;;;;;;11.98;7.60;;;-2.30;95.10;;;;;;5051801;28;20582;-90
2022/03/01 02:12:35;;;;;;;10.50;7.65;;;-2.30;95.10;;;;;;5051808;28;20677;-90
2022/03/01 02:15:25;;;;;;;11.50;7.90;;;-2.30;95.50;;;;;;5051753;28;20709;-90
2022/03/01 02:18:10;;;;;;;14.77;8.00;;;-2.20;95.60;;;;;;5051621;28;20262;-90
2022/03/01 02:20:56;;;;;;;11.80;7.38;;;-2.10;95.60;;;;;;5051862;28;20224;-90
2022/03/01 02:23:31;;;;;;;15.98;8.00;;;-2.10;95.50;;;;;;5052684;28;20209;-90
2022/03/01 02:31:33;;;;;;;15.57;8.00;;;-1.90;95.60;;;;;;5050473;28;20212;-90
2022/03/01 02:34:09;;;;;;;10.77;7.78;;;-1.90;95.30;;;;;;5054568;28;20211;-89
2022/03/01 02:36:48;;;;;;;13.30;8.23;;;-1.90;95.50;;;;;;5070112;27;20288;-90
2022/03/01 02:39:17;;;;;;;13.73;8.73;;;-1.90;95.50;;;;;;5075301;27;20177;-91
2022/03/01 02:44:37;;;;;;;16.33;8.25;;;-1.90;95.50;;;;;;5060735;28;20194;-91
2022/03/01 02:47:07;;;;;;;11.40;7.70;;;-1.90;95.40;;;;;;5071716;28;20221;-91
2022/03/01 02:52:39;;;;;;;11.93;7.60;;;-2.00;95.80;;;;;;5060268;28;20228;-91
2022/03/01 02:55:23;;;;;;;13.55;7.68;;;-2.10;95.70;;;;;;5052136;28;20752;-91
2022/03/01 02:58:13;;;;;;;20.95;8.65;;;-2.20;95.80;;;;;;5051978;28;20225;-90
2022/03/01 03:00:53;;;;;;;12.15;7.13;;;-2.20;95.90;;;;;;5050428;28;20209;-90
2022/03/01 03:03:33;;;;;;;9.05;7.03;;;-2.30;95.90;;;;;;5051145;28;20575;-91
2022/03/01 03:06:10;;;;;;;16.55;8.35;;;-2.30;96.10;;;;;;5050574;28;20236;-90
2022/03/01 03:08:56;;;;;;;12.23;8.63;;;-2.30;96.10;;;;;;5050478;28;20236;-90
2022/03/01 03:11:39;;;;;;;13.70;7.78;;;-2.40;96.10;;;;;;5050391;28;20266;-90
2022/03/01 03:20:11;;;;;;;14.65;8.70;;;-2.50;96.10;;;;;;5050033;28;20237;-90
2022/03/01 03:23:13;;;;;;;12.48;7.47;;;-2.60;96.40;;;;;;5050389;28;20205;-91
2022/03/01 03:26:06;;;;;;;15.07;8.50;;;-2.60;96.50;;;;;;5050275;28;20225;-91
2022/03/01 03:31:42;;;;;;;13.20;8.07;;;-2.70;96.60;;;;;;5052037;28;20638;-91
2022/03/01 03:34:27;;;;;;;11.85;7.43;;;-2.80;96.70;;;;;;5066196;28;20287;-91
2022/03/01 03:37:30;;;;;;;13.15;9.10;;;-2.70;96.90;;;;;;5066833;28;20231;-90
2022/03/01 03:40:10;;;;;;;11.20;7.50;;;-2.70;97.10;;;;;;5052740;28;20583;-90
2022/03/01 03:43:00;;;;;;;11.02;7.10;;;-2.60;97.20;;;;;;5050497;28;20208;-90
2022/03/01 03:45:41;;;;;;;11.48;7.47;;;-2.60;97.30;;;;;;5049966;28;20236;-90
2022/03/01 03:48:19;;;;;;;11.55;7.25;;;-2.60;97.50;;;;;;5050510;28;20197;-90
2022/03/01 03:51:07;;;;;;;12.10;8.30;;;-2.60;97.70;;;;;;5050327;28;20263;-90
2022/03/01 03:53:50;;;;;;;10.88;7.95;;;-2.70;97.80;;;;;;5049745;28;20212;-90
2022/03/01 03:56:30;;;;;;;10.93;7.85;;;-2.60;97.80;;;;;;5049656;28;20250;-90
2022/03/01 03:59:21;;;;;;;13.25;8.20;;;-2.70;97.80;;;;;;5049111;28;20212;-91
2022/03/01 04:02:07;;;;;;;12.85;7.40;;;-2.60;97.80;;;;;;5049833;28;20196;-91
2022/03/01 04:04:54;;;;;;;13.68;8.05;;;-2.60;97.60;;;;;;5049892;28;20213;-91
2022/03/01 04:07:31;;;;;;;12.52;8.18;;;-2.60;97.40;;;;;;5050200;28;20207;-90
2022/03/01 04:12:56;;;;;;;12.23;7.60;;;-2.60;97.50;;;;;;5049657;28;20201;-90
2022/03/01 04:15:43;;;;;;;12.68;9.15;;;-2.60;97.40;;;;;;5049890;28;20225;-90
2022/03/01 04:18:32;;;;;;;12.07;8.15;;;-2.60;97.40;;;;;;5049957;28;20266;-90
2022/03/01 04:21:14;;;;;;;12.75;8.20;;;-2.60;97.40;;;;;;5049693;28;20205;-90
2022/03/01 04:24:05;;;;;;;15.10;8.75;;;-2.60;97.40;;;;;;5049727;28;20692;-90
2022/03/01 04:26:45;;;;;;;13.30;8.63;;;-2.60;97.40;;;;;;5049454;28;20248;-91
2022/03/01 04:29:24;;;;;;;13.85;7.85;;;-2.60;97.40;;;;;;5049681;28;20208;-90
2022/03/01 04:32:02;;;;;;;14.07;8.50;;;-2.60;97.30;;;;;;5049911;28;20281;-90
2022/03/01 04:34:49;;;;;;;12.13;8.05;;;-2.60;97.30;;;;;;5049098;28;20617;-90
2022/03/01 04:37:28;;;;;;;12.77;7.97;;;-2.50;97.20;;;;;;5049389;28;20217;-90
2022/03/01 04:40:03;;;;;;;14.13;8.13;;;-2.50;97.10;;;;;;5049475;28;20288;-90
2022/03/01 04:42:50;;;;;;;14.50;8.32;;;-2.50;97.10;;;;;;5049801;28;20234;-90
2022/03/01 04:45:27;;;;;;;14.90;7.90;;;-2.50;97.10;;;;;;5048804;28;20233;-90
2022/03/01 04:48:13;;;;;;;17.00;8.32;;;-2.50;97.10;;;;;;5049206;28;20205;-91
2022/03/01 04:53:54;;;;;;;12.80;7.38;;;-2.40;96.70;;;;;;5059289;28;20204;-90
2022/03/01 04:59:30;;;;;;;13.48;8.52;;;-2.50;96.80;;;;;;5049238;28;20257;-90
2022/03/01 05:02:17;;;;;;;11.50;8.48;;;-2.50;96.90;;;;;;5049371;28;20324;-90
2022/03/01 05:04:56;;;;;;;12.02;7.88;;;-2.60;96.80;;;;;;5049043;28;20240;-89
2022/03/01 05:07:32;;;;;;;14.38;8.48;;;-2.60;96.80;;;;;;5049002;28;20201;-89
2022/03/01 05:10:21;;;;;;;12.10;8.25;;;-2.50;96.90;;;;;;5049783;28;20205;-91
2022/03/01 05:13:10;;;;;;;11.80;7.13;;;-2.60;96.80;;;;;;5053088;28;20205;-90
2022/03/01 05:15:47;;;;;;;13.65;8.63;;;-2.60;96.90;;;;;;5058585;28;20228;-91
2022/03/01 05:18:47;;;;;;;16.73;9.57;;;-2.60;97.00;;;;;;5053740;28;20717;-90
2022/03/01 05:21:44;;;;;;;13.25;8.05;;;-2.60;97.10;;;;;;5054176;28;20221;-91
2022/03/01 05:24:31;;;;;;;14.07;7.25;;;-2.60;97.10;;;;;;5054157;28;20320;-91
2022/03/01 05:33:11;;;;;;;12.77;7.55;;;-2.70;97.10;;;;;;5055356;28;20209;-91
2022/03/01 05:35:44;;;;;;;12.23;8.20;;;-2.80;97.10;;;;;;5058872;28;20225;-91
2022/03/01 05:38:12;;;;;;;13.57;8.00;;;-2.80;97.30;;;;;;5058733;28;20221;-91
2022/03/01 05:40:48;;;;;;;15.15;7.60;;;-2.80;97.10;;;;;;5059233;28;20255;-90
2022/03/01 05:43:17;;;;;;;15.02;8.35;;;-2.70;97.10;;;;;;5058494;28;20209;-90
2022/03/01 05:45:44;;;;;;;11.68;7.60;;;-2.80;97.10;;;;;;5054899;28;20266;-91
2022/03/01 05:48:15;;;;;;;15.10;8.15;;;-2.70;97.10;;;;;;5055756;28;20561;-91
2022/03/01 05:50:50;;;;;;;11.95;7.65;;;-2.80;97.20;;;;;;5065460;28;20205;-91
2022/03/01 05:54:02;;;;;;;14.02;7.82;;;-2.90;97.20;;;;;;5075711;28;20208;-91
2022/03/01 05:56:35;;;;;;;12.15;7.82;;;-3.00;97.40;;;;;;5075158;27;20258;-90
2022/03/01 05:59:26;;;;;;;14.95;8.38;;;-3.00;97.50;;;;;;5074615;28;20242;-89
2022/03/01 06:08:32;;;;;;;13.98;8.65;;;-2.90;98.20;;;;;;5070949;28;20190;-94
2022/03/01 06:11:13;;;;;;;;;;;;;;;;;;;;;
2022/03/01 06:13:58;;;;;;;16.33;8.35;;;-2.90;97.60;;;;;;5071465;28;20210;-89
2022/03/01 06:16:44;;;;;;;14.75;8.10;;;-3.00;97.60;;;;;;5073632;28;20205;-90
2022/03/01 06:19:19;;;;;;;11.20;8.55;;;-3.10;97.70;;;;;;5058934;28;20231;-90
2022/03/01 06:22:02;;;;;;;13.05;6.95;;;-3.20;97.80;;;;;;5056336;28;20201;-88
2022/03/01 06:24:56;;;;;;;17.05;8.80;;;-3.20;97.90;;;;;;5057294;28;20194;-92
2022/03/01 06:31:00;;;;;;;12.15;7.20;;;-3.10;97.50;;;;;;5047699;28;20689;-90
2022/03/01 06:34:01;;;;;;;14.65;8.40;;;-3.00;97.60;;;;;;5059225;28;20654;-90
2022/03/01 06:36:28;;;;;;;13.20;8.15;;;-3.10;97.80;;;;;;5059441;28;20236;-90
2022/03/01 06:38:55;;;;;;;13.75;9.13;;;-3.10;97.80;;;;;;5059651;28;20697;-90
2022/03/01 06:41:21;;;;;;;16.27;8.25;;;-3.10;97.90;;;;;;5058367;28;20228;-91
2022/03/01 06:43:48;;;;;;;13.82;8.73;;;-3.00;97.90;;;;;;5059488;28;20208;-90
2022/03/01 06:46:35;;;;;;;15.73;8.50;;;-3.00;97.80;;;;;;5050832;23;20216;-92
2022/03/01 06:49:34;;;;;;;13.90;9.20;;;-2.90;97.80;;;;;;4991177;28;20203;-93
2022/03/01 06:52:09;;;;;;;15.68;8.52;;;-2.90;97.70;;;;;;4996749;28;20230;-92
2022/03/01 06:54:39;;;;;;;12.95;9.05;;;-2.80;97.60;;;;;;4988375;28;20192;-92
2022/03/01 06:57:18;;;;;;;17.45;8.88;;;-2.70;97.50;;;;;;4982569;28;20210;-91
2022/03/01 06:59:48;;;;;;;13.85;8.23;;;-2.60;97.50;;;;;;4976035;28;20195;-91
2022/03/01 07:02:26;;;;;;;12.50;8.05;;;-2.60;97.30;;;;;;4975261;28;20223;-92
2022/03/01 07:05:03;;;;;;;13.55;7.53;;;-2.50;97.20;;;;;;4976561;28;20181;-91
2022/03/01 07:07:40;;;;;;;12.18;7.80;;;-2.40;97.00;;;;;;4975806;28;20190;-91
2022/03/01 07:10:17;;;;;;;15.27;9.10;;;-2.40;96.90;;;;;;4977091;28;20185;-93
2022/03/01 07:12:49;;;;;;;16.02;8.57;;;-2.30;96.80;;;;;;4977296;28;20193;-92
2022/03/01 07:15:22;;;;;;;15.35;9.05;;;-2.20;96.90;;;;;;4976201;28;20189;-92
2022/03/01 07:17:55;;;;;;;13.85;7.25;;;-1.90;96.60;;;;;;4974581;28;20243;-92
2022/03/01 07:20:36;;;;;;;11.98;7.80;;;-1.20;95.80;;;;;;4976714;28;20260;-92
2022/03/01 07:23:13;;;;;;;13.82;8.20;;;-0.10;94.60;;;;;;4976778;28;20280;-93
2022/03/01 07:25:45;;;;;;;12.20;9.32;;;0.60;92.80;;;;;;4959406;28;20463;-92
2022/03/01 07:28:14;;;;;;;11.50;8.35;;;1.40;91.50;;;;;;4959648;28;20641;-91
2022/03/01 07:30:41;;;;;;;11.27;7.93;;;1.80;91.10;;;;;;4959873;28;20204;-91
2022/03/01 07:33:26;;;;;;;12.75;8.20;;;2.30;90.40;;;;;;4961824;28;20196;-94
2022/03/01 07:35:54;;;;;;;11.70;8.02;;;2.70;88.90;;;;;;4976069;28;20224;-95
2022/03/01 07:38:25;;;;;;;11.18;7.97;;;3.30;88.40;;;;;;4975469;28;20275;-93
2022/03/01 07:40:59;;;;;;;12.35;8.50;;;4.20;86.10;;;;;;4971952;28;20230;-92
2022/03/01 07:43:26;;;;;;;12.05;8.18;;;4.80;84.40;;;;;;4974142;28;20197;-92
2022/03/01 07:45:55;;;;;;;11.70;8.00;;;5.50;82.20;;;;;;4976304;28;20227;-92
2022/03/01 07:51:17;;;;;;;14.27;8.57;;;6.50;80.70;;;;;;4988787;28;20362;-77
2022/03/01 07:53:44;;;;;;;11.65;8.15;;;6.60;77.40;;;;;;4976194;28;20223;-79
2022/03/01 07:56:11;;;;;;;11.43;8.27;;;6.70;77.40;;;;;;4965630;28;20799;-78
2022/03/01 07:58:38;;;;;;;12.52;8.57;;;6.60;77.10;;;;;;4970746;28;20590;-78
2022/03/01 08:01:05;;;;;;;10.55;7.97;;;7.00;77.70;;;;;;4970011;28;20576;-78
2022/03/01 08:03:31;;;;;;;15.13;9.73;;;7.00;76.30;;;;;;4958486;28;20608;-77
2022/03/01 08:05:59;;;;;;;10.52;8.40;;;7.10;75.50;;;;;;4968052;28;20543;-78
2022/03/01 08:08:27;;;;;;;11.45;8.35;;;7.20;75.50;;;;;;5001284;28;20207;-76
2022/03/01 08:10:54;;;;;;;10.75;7.80;;;7.30;74.60;;;;;;4992606;28;20203;-78
2022/03/01 08:13:21;;;;;;;11.70;8.45;;;7.40;75.90;;;;;;5005010;28;20218;-76
2022/03/01 08:15:48;;;;;;;9.80;7.55;;;7.70;73.80;;;;;;4987005;28;20219;-76
2022/03/01 08:18:14;;;;;;;14.15;7.90;;;7.90;73.10;;;;;;4975354;28;20227;-76
2022/03/01 08:20:41;;;;;;;12.18;8.45;;;8.00;72.80;;;;;;4983278;28;20210;-76
2022/03/01 08:23:10;;;;;;;9.88;7.70;;;8.50;74.50;;;;;;4975306;28;20578;-74
2022/03/01 08:25:40;;;;;;;12.02;8.02;;;9.30;74.00;;;;;;4971453;28;20265;-78
2022/03/01 08:28:10;;;;;;;13.40;9.15;;;9.70;70.90;;;;;;4971769;28;20667;-76
2022/03/01 08:30:37;;;;;;;11.57;7.47;;;9.40;70.70;;;;;;4969436;28;20214;-75
2022/03/01 08:33:08;;;;;;;13.23;8.00;;;9.10;71.60;;;;;;4967826;28;20212;-73
2022/03/01 08:35:36;;;;;;;11.95;9.68;;;9.00;70.80;;;;;;4968220;28;20493;-74
2022/03/01 08:38:05;;;;;;;17.88;8.75;;;8.60;69.90;;;;;;4976848;28;20216;-75
2022/03/01 08:40:37;;;;;;;13.35;9.00;;;8.70;71.10;;;;;;4972981;28;20214;-75
2022/03/01 08:43:05;;;;;;;12.07;8.10;;;9.50;71.10;;;;;;4971057;28;20295;-73
2022/03/01 08:45:32;;;;;;;10.45;8.35;;;9.60;69.50;;;;;;4966821;28;20222;-74
2022/03/01 08:47:59;;;;;;;13.80;9.10;;;9.80;70.40;;;;;;4968543;28;20206;-75
2022/03/01 08:50:26;;;;;;;12.50;8.50;;;9.90;70.40;;;;;;4975152;28;20222;-76
2022/03/01 08:52:54;;;;;;;13.55;8.90;;;10.50;69.20;;;;;;4986775;28;20302;-73
2022/03/01 08:55:21;;;;;;;10.05;7.45;;;10.80;65.80;;;;;;4986714;28;20227;-76
2022/03/01 08:57:50;;;;;;;11.75;9.38;;;11.10;67.10;;;;;;4986810;28;20640;-75
2022/03/01 09:00:18;;;;;;;8.40;7.10;;;11.40;65.20;;;;;;4976168;28;20204;-75
2022/03/01 09:02:46;;;;;;;9.40;7.72;;;11.50;65.80;;;;;;4966615;28;20547;-74
2022/03/01 09:05:13;;;;;;;11.23;8.13;;;12.00;65.50;;;;;;4967452;28;20239;-76
2022/03/01 09:07:41;;;;;;;12.52;8.75;;;12.60;64.40;;;;;;4969181;28;20682;-76
2022/03/01 09:10:09;;;;;;;12.10;8.07;;;13.40;65.10;;;;;;4969063;28;20200;-75
2022/03/01 09:12:36;;;;;;;11.20;8.13;;;14.30;61.70;;;;;;4969559;28;20216;-74
2022/03/01 09:15:06;;;;;;;11.20;8.60;;;14.90;61.50;;;;;;4969869;28;20574;-78
2022/03/01 09:17:34;;;;;;;11.00;8.60;;;14.60;59.90;;;;;;4969075;28;20466;-74
2022/03/01 09:20:01;;;;;;;10.00;8.43;;;14.50;59.80;;;;;;4967622;28;20261;-73
2022/03/01 09:22:28;;;;;;;10.13;8.60;;;14.50;60.10;;;;;;4967405;28;20566;-76
2022/03/01 09:24:55;;;;;;;9.30;7.43;;;14.70;60.00;;;;;;4966406;28;20495;-75
2022/03/01 09:27:23;;;;;;;9.07;8.10;;;14.60;58.30;;;;;;4966555;28;20950;-76
2022/03/01 09:29:50;;;;;;;8.60;7.60;;;14.70;59.80;;;;;;4966944;28;20838;-76
2022/03/01 09:32:19;;;;;;;9.60;8.00;;;15.10;59.10;;;;;;4967228;28;20491;-74
2022/03/01 09:34:46;;;;;;;12.67;8.37;;;15.90;58.90;;;;;;4966718;28;20483;-75
2022/03/01 09:37:12;;;;;;;9.33;8.27;;;16.20;57.10;;;;;;4965457;28;20463;-75
2022/03/01 09:39:39;;;;;;;9.00;7.77;;;16.40;57.50;;;;;;4965863;28;20487;-76
2022/03/01 09:42:08;;;;;;;11.50;7.60;;;16.50;56.60;;;;;;4966315;28;20486;-76
2022/03/01 09:44:34;;;;;;;12.83;8.63;;;17.10;56.50;;;;;;4965077;28;20495;-75
2022/03/01 09:47:01;;;;;;;11.13;7.73;;;17.90;55.40;;;;;;4966032;28;20467;-75
2022/03/01 09:49:29;;;;;;;8.70;7.50;;;18.40;55.50;;;;;;4966240;28;20477;-75
2022/03/01 09:51:56;;;;;;;11.37;8.27;;;18.40;55.20;;;;;;4965907;28;20467;-75
2022/03/01 09:54:23;;;;;;;9.20;8.27;;;18.20;55.20;;;;;;4966180;28;20523;-76
2022/03/01 09:56:50;;;;;;;10.57;8.50;;;18.70;52.90;;;;;;4968026;28;20494;-74
2022/03/01 09:59:17;;;;;;;9.47;7.23;;;19.30;52.80;;;;;;4969198;28;20498;-75
2022/03/01 10:01:49;;;;;;;9.43;7.67;;;19.30;53.10;;;;;;4969216;28;20463;-75
2022/03/01 10:04:16;;;;;;;10.90;8.40;;;19.60;52.00;;;;;;4969825;28;20483;-77
2022/03/01 10:06:45;;;;;;;10.33;8.07;;;19.50;52.50;;;;;;4968850;28;20499;-76
2022/03/01 10:09:15;;;;;;;10.43;8.00;;;19.40;52.50;;;;;;4969591;28;20545;-77
2022/03/01 10:11:42;;;;;;;8.97;7.47;;;19.40;51.80;;;;;;4969661;28;20476;-75
2022/03/01 10:14:09;;;;;;;8.93;7.67;;;19.60;51.20;;;;;;4969332;28;20523;-75
2022/03/01 10:16:41;;;;;;;8.53;7.63;;;18.60;51.30;;;;;;4969391;28;20552;-73
2022/03/01 10:19:17;;;;;;;10.53;8.30;;;19.30;51.70;;;;;;4976066;28;20517;-74
2022/03/01 10:21:49;;;;;;;10.47;7.03;;;19.80;51.30;;;;;;4990648;28;20484;-76
2022/03/01 10:24:20;;;;;;;8.13;7.00;;;20.10;52.20;;;;;;4989618;28;20993;-76
2022/03/01 10:26:49;;;;;;;9.57;7.90;;;20.70;50.40;;;;;;4989836;28;20477;-76
2022/03/01 10:29:17;;;;;;;9.93;8.50;;;20.80;51.30;;;;;;5061785;28;20557;-76
2022/03/01 10:31:49;;;;;;;12.30;8.60;;;20.50;51.30;;;;;;5072393;28;20451;-75
2022/03/01 10:34:16;;;;;;;8.90;7.57;;;20.80;50.30;;;;;;5072125;28;20478;-76
2022/03/01 10:36:46;;;;;;;8.97;7.30;;;21.10;51.60;;;;;;5071453;28;20489;-76
2022/03/01 10:39:17;;;;;;;8.90;7.93;;;20.90;49.50;;;;;;5071854;28;20486;-76
2022/03/01 10:41:45;;;;;;;8.80;7.43;;;20.80;49.80;;;;;;5072047;28;20467;-76
2022/03/01 10:44:15;;;;;;;11.37;7.80;;;20.30;48.60;;;;;;5072340;28;20489;-76
2022/03/01 10:46:43;;;;;;;10.17;7.57;;;19.50;49.20;;;;;;5072701;28;20498;-75
2022/03/01 10:49:11;;;;;;;10.30;7.77;;;18.70;49.60;;;;;;5071623;28;20461;-76
2022/03/01 10:51:48;;;;;;;9.20;7.80;;;18.20;50.80;;;;;;5071700;28;20466;-76
2022/03/01 10:54:29;;;;;;;8.37;7.57;;;17.80;50.30;;;;;;5071094;28;20489;-74
2022/03/01 10:56:56;;;;;;;8.67;7.80;;;17.80;50.70;;;;;;5071566;28;20468;-76
2022/03/01 10:59:24;;;;;;;8.43;7.53;;;18.60;51.10;;;;;;5071458;28;21079;-76
2022/03/01 11:01:51;;;;;;;10.00;7.97;;;19.30;51.10;;;;;;5071043;28;20473;-76
2022/03/01 11:04:18;;;;;;;8.50;7.57;;;20.20;50.50;;;;;;5071472;28;20483;-76
2022/03/01 11:06:47;;;;;;;9.43;8.10;;;19.90;51.00;;;;;;5070637;28;20868;-75
2022/03/01 11:09:14;;;;;;;8.70;7.70;;;20.20;49.00;;;;;;5071228;28;20465;-76
2022/03/01 11:11:43;;;;;;;9.70;8.53;;;20.30;49.20;;;;;;5071700;28;20469;-75
2022/03/01 11:14:11;;;;;;;8.33;7.27;;;19.40;49.80;;;;;;5070890;28;20474;-76
2022/03/01 11:16:49;;;;;;;11.20;8.50;;;19.60;50.50;;;;;;5070838;28;20465;-76
2022/03/01 11:19:48;;;;;;;10.43;6.87;;;19.80;50.00;;;;;;5070791;28;20494;-76
2022/03/01 11:22:22;;;;;;;9.23;8.00;;;20.50;49.10;;;;;;5070841;28;21055;-74
2022/03/01 11:24:49;;;;;;;10.77;8.43;;;21.00;48.40;;;;;;5072196;28;20491;-77
2022/03/01 11:27:21;;;;;;;7.83;7.10;;;20.60;48.60;;;;;;5071924;28;20887;-76
2022/03/01 11:29:49;;;;;;;7.90;7.10;;;21.10;48.50;;;;;;5069566;28;20808;-75
2022/03/01 11:32:17;;;;;;;9.10;7.50;;;21.00;49.10;;;;;;5069718;28;20454;-77
2022/03/01 11:34:45;;;;;;;7.80;6.70;;;20.90;47.30;;;;;;5071966;28;20518;-75
2022/03/01 11:37:18;;;;;;;10.37;8.13;;;21.00;48.60;;;;;;5071054;28;20462;-77
2022/03/01 11:39:54;;;;;;;7.87;7.00;;;21.50;48.20;;;;;;5069437;28;20486;-76
2022/03/01 11:42:22;;;;;;;8.43;6.97;;;21.90;47.10;;;;;;5070109;28;20454;-77
2022/03/01 11:44:51;;;;;;;7.63;6.93;;;22.00;46.60;;;;;;5070138;28;21247;-77
2022/03/01 11:47:25;;;;;;;8.43;7.00;;;21.80;46.00;;;;;;5070069;28;20466;-76
2022/03/01 11:49:52;;;;;;;9.03;6.90;;;21.60;46.90;;;;;;5069823;28;20584;-76
2022/03/01 11:52:20;;;;;;;9.07;7.77;;;22.00;46.60;;;;;;5070471;28;20561;-76
2022/03/01 11:54:49;;;;;;;7.40;6.60;;;21.70;47.30;;;;;;5069350;28;20569;-77
2022/03/01 11:57:17;;;;;;;7.50;6.67;;;21.90;46.30;;;;;;5069421;28;20497;-74
2022/03/01 11:59:47;;;;;;;6.47;5.87;;;21.60;43.70;;;;;;5070283;28;21007;-75
2022/03/01 12:02:15;;;;;;;8.77;6.73;;;21.60;44.70;;;;;;5070341;28;20541;-76
2022/03/01 12:04:46;;;;;;;6.57;5.87;;;21.50;45.40;;;;;;5069905;28;20850;-76
2022/03/01 12:07:18;;;;;;;6.50;5.80;;;22.00;44.40;;;;;;5069886;28;20494;-73
2022/03/01 12:09:54;;;;;;;7.00;6.40;;;22.00;40.90;;;;;;5069594;28;20459;-76
2022/03/01 12:12:32;;;;;;;7.93;7.13;;;21.30;43.60;;;;;;5071141;28;20548;-77
2022/03/01 12:15:00;;;;;;;7.60;6.57;;;21.10;44.30;;;;;;5070061;28;20897;-75
2022/03/01 12:17:27;;;;;;;8.53;6.70;;;20.70;44.70;;;;;;5068127;28;20462;-74
2022/03/01 12:20:00;;;;;;;7.27;6.57;;;19.80;44.80;;;;;;5069200;28;20486;-76
2022/03/01 12:22:27;;;;;;;7.53;6.20;;;18.90;44.80;;;;;;5066663;28;20535;-76
2022/03/01 12:24:57;;;;;;;6.90;6.20;;;18.10;46.70;;;;;;5069679;28;20486;-76
2022/03/01 12:27:29;;;;;;;6.90;6.20;;;18.10;46.30;;;;;;5069287;28;20466;-75
2022/03/01 12:29:58;;;;;;;8.33;7.10;;;18.70;46.10;;;;;;5069333;28;20834;-77
2022/03/01 12:32:26;;;;;;;6.97;5.60;;;18.60;46.50;;;;;;5072071;28;20458;-76
2022/03/01 12:34:58;;;;;;;8.27;6.70;;;18.90;45.70;;;;;;5070450;28;20482;-76
2022/03/01 12:37:28;;;;;;;7.23;6.17;;;19.20;44.00;;;;;;5069823;28;20562;-76
2022/03/01 12:39:55;;;;;;;7.27;6.50;;;19.00;47.50;;;;;;5067984;28;20490;-77
2022/03/01 12:42:27;;;;;;;7.77;6.70;;;18.80;45.10;;;;;;5068561;28;20470;-76
2022/03/01 12:44:54;;;;;;;9.10;7.30;;;19.00;45.40;;;;;;5070507;28;20490;-74
2022/03/01 12:47:21;;;;;;;8.80;7.17;;;19.40;45.30;;;;;;5069363;28;20459;-76
2022/03/01 12:49:50;;;;;;;7.90;6.37;;;19.50;45.50;;;;;;5069357;28;20557;-73
2022/03/01 12:52:19;;;;;;;7.13;6.43;;;20.00;45.40;;;;;;5069733;28;20466;-76
2022/03/01 12:54:48;;;;;;;8.00;6.13;;;20.60;44.40;;;;;;5067417;28;20479;-76
2022/03/01 12:57:15;;;;;;;8.60;6.37;;;21.20;44.40;;;;;;5068415;28;20459;-76
2022/03/01 12:59:44;;;;;;;8.93;6.77;;;21.00;44.20;;;;;;5068765;28;20891;-76
2022/03/01 13:02:15;;;;;;;8.20;7.37;;;20.40;45.20;;;;;;5069101;28;20546;-76
2022/03/01 13:04:43;;;;;;;7.10;6.30;;;20.00;44.90;;;;;;5068124;28;20479;-76
2022/03/01 13:07:11;;;;;;;7.50;6.70;;;20.30;44.80;;;;;;5069155;28;20968;-76
2022/03/01 13:09:38;;;;;;;11.17;6.60;;;20.10;44.80;;;;;;5067340;28;20461;-76
2022/03/01 13:12:07;;;;;;;6.93;6.23;;;19.40;45.10;;;;;;5069411;28;20537;-76
2022/03/01 13:14:33;;;;;;;7.30;6.17;;;18.40;44.00;;;;;;5069903;28;20486;-76
2022/03/01 13:17:03;;;;;;;7.03;6.03;;;17.20;45.20;;;;;;5069200;28;20465;-75
2022/03/01 13:19:32;;;;;;;8.37;5.30;;;16.40;45.50;;;;;;5069461;28;20488;-75
2022/03/01 13:22:02;;;;;;;6.90;6.20;;;16.50;46.20;;;;;;5069763;28;20467;-76
2022/03/01 13:24:33;;;;;;;5.37;4.80;;;16.60;45.00;;;;;;5069387;28;20474;-76
2022/03/01 13:27:01;;;;;;;7.67;5.13;;;16.00;45.20;;;;;;5068907;28;20469;-76
2022/03/01 13:29:29;;;;;;;5.70;5.20;;;15.50;45.40;;;;;;5069318;28;20466;-76
2022/03/01 13:32:05;;;;;;;6.40;5.13;;;15.30;44.30;;;;;;5072931;28;20466;-76
2022/03/01 13:34:32;;;;;;;6.63;5.53;;;15.50;45.90;;;;;;5073262;28;20564;-76
2022/03/01 13:37:00;;;;;;;7.50;5.13;;;15.60;42.50;;;;;;5073104;28;20462;-74
2022/03/01 13:39:28;;;;;;;6.13;5.17;;;14.50;43.60;;;;;;5025974;28;20470;-76
2022/03/01 13:41:59;;;;;;;7.10;5.00;;;14.00;45.80;;;;;;4971446;28;20478;-75
2022/03/01 13:44:28;;;;;;;8.43;5.77;;;13.80;46.20;;;;;;4971800;28;20647;-76
2022/03/01 13:46:58;;;;;;;7.03;5.57;;;13.80;46.20;;;;;;4970077;28;20700;-74
2022/03/01 13:49:30;;;;;;;12.97;10.60;;;13.70;46.10;;;;;;4981656;28;20981;-73
2022/03/01 13:52:06;;;;;;;9.60;6.73;;;13.50;47.30;;;;;;4991046;28;20457;-76
2022/03/01 13:54:33;;;;;;;5.80;4.87;;;13.30;46.90;;;;;;4991300;28;20490;-77
2022/03/01 13:57:01;;;;;;;7.07;5.90;;;12.80;46.30;;;;;;4990741;28;20722;-77
2022/03/01 13:59:28;;;;;;;8.40;7.50;;;12.90;48.30;;;;;;4991372;28;20462;-78
2022/03/01 14:01:55;;;;;;;12.52;6.40;;;12.70;48.20;;;;;;4992970;28;20470;-78
2022/03/01 14:04:23;;;;;;;6.85;5.93;;;12.60;49.20;;;;;;4991988;28;20223;-81